map of NTU home
NTU - Airport
Location
City:  Virginia Beach, Virginia, United States
Name:NAS Oceana
Old (Alt.):Apollo Soucek Field
ICAO:KNTU
IATA:NTU
FAA LID:NTU

Details
Type:Airport (Airfield)
Use:Military
Latitude:3649'22"N (36.822742)
Longitude:7601'55"W (-76.031896)
Datum:WGS 1984
Elevation:22 ft (7 m)
Variation:11.00W (WMM2015 magnetic declination)
-0.02 annual change
Runways:4
Longest:12008 × 200 ft (3660 × 61 m), paved

Time
Time Zone:UTC-5 (DST-4)
Local Time:

Weather
METAR:KNTU 120356Z 23007KT 10SM CLR M01/M04 A3007 RMK AO2 SLP185 T10111044

Related Locations
Nearby:
Farthest:YAUG: 11790 mi / 18974 km
Augusta [Augusta Airport], WA, AU

Find:

   beyond  
but within

Other Information
Maps:
NOTAMs:
Links:
Sources:

  
  • flag of United States
  • flag of Virginia
  

Airport Diagram

Airport diagram for NTU

Airport diagram PDF

Sectional Chart

Flight Planning
at skyvector.com

Satellite Image

Google Maps Satellite view

 

Copyright © 2004-2018 Karl L. Swartz. All rights reserved.
The Great Circle Mapper name and logo are trademarks of the Great Circle Mapper.
All other trademarks mentioned herein belong to their respective owners.
Please see credits for attibutions and further copyright information.

  Follow gcmap on Facebook Follow gcmap on Twitter Follow gcmap on Google+ GCmap on LinkedIn

hCard Microformat

Geo Microformat